createdAt,value
2023-01-30T00:00:29.531Z,17.19
2023-01-30T00:01:29.583Z,17.17
2023-01-30T00:02:29.605Z,17.18
2023-01-30T00:04:29.732Z,17.18
2023-01-30T00:05:29.779Z,17.19
2023-01-30T00:06:29.873Z,17.18
2023-01-30T00:07:29.886Z,17.18
2023-01-30T00:08:29.898Z,17.18
2023-01-30T00:09:30.006Z,17.20
2023-01-30T00:10:30.075Z,17.20
2023-01-30T00:11:30.265Z,17.17
2023-01-30T00:12:30.136Z,17.20
2023-01-30T00:13:30.179Z,17.22
2023-01-30T00:14:30.242Z,17.18
2023-01-30T00:15:30.301Z,17.18
2023-01-30T00:16:30.421Z,17.18
2023-01-30T00:17:30.379Z,17.20
2023-01-30T00:18:30.460Z,17.20
2023-01-30T00:19:30.493Z,17.18
2023-01-30T00:20:30.515Z,17.19
2023-01-30T00:21:30.614Z,17.19
2023-01-30T00:22:30.655Z,17.19
2023-01-30T00:23:30.714Z,17.19
2023-01-30T00:24:30.764Z,17.21
2023-01-30T00:25:30.852Z,17.21
2023-01-30T00:26:30.859Z,17.19
2023-01-30T00:27:30.900Z,17.20
2023-01-30T00:28:30.929Z,17.17
2023-01-30T00:29:30.998Z,17.19
2023-01-30T00:30:31.044Z,17.17
2023-01-30T00:31:31.167Z,17.16
2023-01-30T00:32:31.108Z,17.14
2023-01-30T00:33:31.192Z,17.14
2023-01-30T00:34:31.202Z,17.14
2023-01-30T00:35:31.273Z,17.13
2023-01-30T00:36:31.300Z,17.12
2023-01-30T00:37:31.370Z,17.11
2023-01-30T00:38:31.410Z,17.08
2023-01-30T00:39:31.439Z,17.10
2023-01-30T00:40:31.483Z,17.06
2023-01-30T00:41:31.570Z,17.06
2023-01-30T00:42:31.588Z,17.06
2023-01-30T00:43:31.609Z,17.04
2023-01-30T00:44:31.688Z,17.02
2023-01-30T00:45:31.722Z,17.01
2023-01-30T00:46:31.737Z,17.02
2023-01-30T00:47:31.832Z,17.01
2023-01-30T00:48:31.846Z,17.00
2023-01-30T00:49:31.987Z,16.98
2023-01-30T00:50:31.899Z,16.96
2023-01-30T00:51:31.933Z,16.97
2023-01-30T00:52:31.989Z,16.95
2023-01-30T00:53:32.061Z,16.93
2023-01-30T00:54:32.049Z,16.93
2023-01-30T00:55:32.087Z,16.93
2023-01-30T00:56:32.133Z,16.89
2023-01-30T00:57:32.132Z,16.90
2023-01-30T00:58:32.170Z,16.87
2023-01-30T00:59:32.235Z,16.87
2023-01-30T01:00:32.231Z,16.87
2023-01-30T01:01:32.243Z,16.86
2023-01-30T01:02:32.312Z,16.85
2023-01-30T01:03:32.318Z,16.84
2023-01-30T01:04:32.339Z,16.83
2023-01-30T01:05:32.377Z,16.80
2023-01-30T01:06:32.390Z,16.81
2023-01-30T01:07:32.385Z,16.80
2023-01-30T01:08:32.462Z,16.80
2023-01-30T01:09:32.465Z,16.76
2023-01-30T01:10:32.528Z,16.77
2023-01-30T01:11:32.519Z,16.76
2023-01-30T01:12:32.540Z,16.75
2023-01-30T01:13:32.572Z,16.76
2023-01-30T01:14:32.575Z,16.74
2023-01-30T01:15:32.604Z,16.73
2023-01-30T01:16:32.715Z,16.73
2023-01-30T01:17:32.614Z,16.72
2023-01-30T01:18:32.646Z,16.72
2023-01-30T01:19:32.690Z,16.70
2023-01-30T01:20:32.678Z,16.71
2023-01-30T01:21:32.687Z,16.69
2023-01-30T01:22:32.700Z,16.69
2023-01-30T01:23:32.697Z,16.67
2023-01-30T01:24:32.777Z,16.68
2023-01-30T01:25:32.781Z,16.66
2023-01-30T01:26:32.835Z,16.66
2023-01-30T01:27:32.784Z,16.65
2023-01-30T01:28:32.841Z,16.64
2023-01-30T01:29:32.815Z,16.64
2023-01-30T01:30:32.846Z,16.62
2023-01-30T01:31:32.984Z,16.62
2023-01-30T01:32:32.871Z,16.61
2023-01-30T01:33:32.881Z,16.59
2023-01-30T01:34:32.883Z,16.60
2023-01-30T01:35:32.895Z,16.56
2023-01-30T01:36:52.617Z,16.57
2023-01-30T01:37:33.896Z,16.56
2023-01-30T01:38:32.845Z,16.57
2023-01-30T01:39:32.824Z,16.56
2023-01-30T01:40:32.820Z,16.53
2023-01-30T01:41:32.804Z,16.53
2023-01-30T01:42:32.775Z,16.51
2023-01-30T01:43:32.727Z,16.53
2023-01-30T01:44:32.743Z,16.53
2023-01-30T01:45:32.720Z,16.52
2023-01-30T01:46:32.684Z,16.51
2023-01-30T01:47:32.647Z,16.51
2023-01-30T01:48:32.663Z,16.49
2023-01-30T01:49:32.651Z,16.50
2023-01-30T01:50:32.639Z,16.49
2023-01-30T01:51:32.613Z,16.49
2023-01-30T01:52:32.576Z,16.48
2023-01-30T01:53:32.557Z,16.47
2023-01-30T01:54:32.551Z,16.47
2023-01-30T01:55:32.506Z,16.47
2023-01-30T01:56:32.532Z,16.48
2023-01-30T01:57:32.486Z,16.47
2023-01-30T01:58:32.471Z,16.45
2023-01-30T01:59:32.437Z,16.44
2023-01-30T02:00:32.422Z,16.45
2023-01-30T02:01:32.419Z,16.45
2023-01-30T02:02:32.472Z,16.45
2023-01-30T02:03:32.344Z,16.43
2023-01-30T02:04:32.346Z,16.42
2023-01-30T02:05:32.314Z,16.43
2023-01-30T02:06:32.284Z,16.43
2023-01-30T02:07:32.240Z,16.42
2023-01-30T02:08:32.271Z,16.41
2023-01-30T02:09:32.235Z,16.40
2023-01-30T02:10:32.244Z,16.41
2023-01-30T02:11:32.261Z,16.40
2023-01-30T02:12:32.231Z,16.40
2023-01-30T02:13:32.222Z,16.38
2023-01-30T02:14:32.227Z,16.39
2023-01-30T02:15:32.167Z,16.39
2023-01-30T02:16:32.149Z,16.39
2023-01-30T02:17:32.263Z,16.38
2023-01-30T02:18:32.201Z,16.38
2023-01-30T02:19:32.197Z,16.37
2023-01-30T02:20:32.135Z,16.35
2023-01-30T02:21:32.170Z,16.36
2023-01-30T02:22:32.149Z,16.35
2023-01-30T02:23:32.172Z,16.34
2023-01-30T02:24:32.135Z,16.34
2023-01-30T02:25:32.168Z,16.34
2023-01-30T02:26:32.271Z,16.34
2023-01-30T02:27:32.096Z,16.34
2023-01-30T02:28:32.092Z,16.33
2023-01-30T02:29:32.048Z,16.32
2023-01-30T02:30:32.079Z,16.32
2023-01-30T02:31:32.102Z,16.31
2023-01-30T02:32:32.011Z,16.30
2023-01-30T02:33:32.046Z,16.31
2023-01-30T02:34:32.028Z,16.30
2023-01-30T02:35:31.988Z,16.30
2023-01-30T02:36:31.981Z,16.29
2023-01-30T02:37:31.955Z,16.29
2023-01-30T02:38:31.944Z,16.28
2023-01-30T02:39:31.889Z,16.27
2023-01-30T02:40:31.858Z,16.28
2023-01-30T02:41:31.870Z,16.28
2023-01-30T02:42:31.874Z,16.25
2023-01-30T02:43:31.812Z,16.26
2023-01-30T02:44:31.824Z,16.27
2023-01-30T02:45:31.801Z,16.26
2023-01-30T02:46:31.763Z,16.24
2023-01-30T02:47:31.769Z,16.24
2023-01-30T02:48:31.784Z,16.22
2023-01-30T02:49:31.735Z,16.24
2023-01-30T02:50:31.716Z,16.20
2023-01-30T02:51:31.753Z,16.21
2023-01-30T02:52:31.699Z,16.21
2023-01-30T02:53:31.686Z,16.22
2023-01-30T02:54:31.701Z,16.20
2023-01-30T02:55:31.650Z,16.20
2023-01-30T02:56:31.661Z,16.21
2023-01-30T02:57:31.601Z,16.20
2023-01-30T02:58:31.573Z,16.19
2023-01-30T02:59:31.537Z,16.19
2023-01-30T03:00:31.562Z,16.20
2023-01-30T03:01:31.508Z,16.18
2023-01-30T03:02:31.523Z,16.17
2023-01-30T03:03:31.503Z,16.17
2023-01-30T03:04:31.447Z,16.16
2023-01-30T03:05:31.420Z,16.14
2023-01-30T03:06:31.385Z,16.14
2023-01-30T03:07:31.405Z,16.17
2023-01-30T03:08:31.336Z,16.16
2023-01-30T03:09:31.371Z,16.15
2023-01-30T03:10:31.310Z,16.14
2023-01-30T03:11:31.317Z,16.14
2023-01-30T03:12:31.302Z,16.14
2023-01-30T03:13:31.305Z,16.15
2023-01-30T03:14:31.293Z,16.12
2023-01-30T03:15:31.248Z,16.11
2023-01-30T03:16:31.214Z,16.13
2023-01-30T03:17:31.197Z,16.12
2023-01-30T03:18:31.169Z,16.13
2023-01-30T03:19:31.163Z,16.11
2023-01-30T03:20:31.154Z,16.11
2023-01-30T03:21:31.094Z,16.12
2023-01-30T03:22:31.089Z,16.10
2023-01-30T03:23:31.047Z,16.11
2023-01-30T03:24:31.041Z,16.10
2023-01-30T03:25:31.030Z,16.10
2023-01-30T03:26:31.048Z,16.10
2023-01-30T03:27:31.003Z,16.09
2023-01-30T03:28:30.974Z,16.10
2023-01-30T03:29:30.931Z,16.07
2023-01-30T03:30:30.943Z,16.08
2023-01-30T03:31:30.977Z,16.09
2023-01-30T03:32:30.881Z,16.08
2023-01-30T03:33:30.918Z,16.08
2023-01-30T03:34:30.834Z,16.08
2023-01-30T03:35:30.865Z,16.08
2023-01-30T03:36:30.849Z,16.06
2023-01-30T03:37:30.869Z,16.05
2023-01-30T03:38:30.907Z,16.05
2023-01-30T03:39:30.934Z,16.04
2023-01-30T03:40:30.916Z,16.05
2023-01-30T03:41:30.908Z,16.06
2023-01-30T03:42:30.914Z,16.04
2023-01-30T03:43:30.866Z,16.05
2023-01-30T03:44:30.883Z,16.03
2023-01-30T03:45:30.905Z,16.04
2023-01-30T03:46:30.871Z,16.03
2023-01-30T03:47:30.987Z,16.03
2023-01-30T03:48:30.898Z,16.03
2023-01-30T03:49:30.892Z,16.02
2023-01-30T03:50:30.918Z,16.03
2023-01-30T03:51:30.877Z,16.02
2023-01-30T03:52:30.884Z,16.01
2023-01-30T03:53:30.869Z,16.00
2023-01-30T03:54:30.859Z,16.02
2023-01-30T03:55:30.864Z,16.00
2023-01-30T03:56:30.882Z,15.99
2023-01-30T03:57:30.878Z,15.97
2023-01-30T03:58:30.861Z,15.98
2023-01-30T03:59:30.879Z,15.98
2023-01-30T04:00:30.863Z,15.96
2023-01-30T04:01:30.934Z,15.97
2023-01-30T04:02:30.965Z,15.96
2023-01-30T04:03:30.893Z,15.96
2023-01-30T04:04:30.893Z,15.97
2023-01-30T04:05:30.935Z,15.96
2023-01-30T04:06:30.958Z,15.96
2023-01-30T09:55:32.167Z,23.21
2023-01-30T11:25:31.738Z,17.61
2023-01-30T11:40:31.724Z,19.42
2023-01-30T11:49:46.115Z,18.58
2023-01-30T11:50:35.317Z,18.09
2023-01-30T11:51:31.537Z,18.73
2023-01-30T11:52:31.535Z,18.23
2023-01-30T11:53:31.558Z,18.08
2023-01-30T11:54:31.610Z,17.74
2023-01-30T11:55:31.587Z,17.98
2023-01-30T11:56:31.641Z,17.95
2023-01-30T11:57:31.676Z,17.98
2023-01-30T11:58:31.703Z,17.72
2023-01-30T11:59:31.684Z,17.91
2023-01-30T12:00:31.770Z,17.68
2023-01-30T12:01:31.786Z,18.30
2023-01-30T12:02:31.776Z,17.26
2023-01-30T12:03:31.938Z,17.64
2023-01-30T12:04:31.876Z,17.81
2023-01-30T12:05:31.951Z,17.37
2023-01-30T12:06:31.955Z,18.53
2023-01-30T12:07:31.974Z,18.60
2023-01-30T12:08:41.772Z,19.17
2023-01-30T12:10:32.029Z,19.21
2023-01-30T12:11:31.974Z,19.19
2023-01-30T12:12:31.973Z,19.21
2023-01-30T12:13:31.993Z,19.31
2023-01-30T12:14:31.966Z,19.39
2023-01-30T12:16:32.058Z,19.56
2023-01-30T12:17:31.916Z,19.66
2023-01-30T12:18:31.886Z,19.70
2023-01-30T12:19:31.885Z,19.85
2023-01-30T12:20:31.877Z,19.89
2023-01-30T12:21:32.232Z,20.00
2023-01-30T12:22:31.963Z,20.04
2023-01-30T12:23:31.969Z,20.19
2023-01-30T12:24:32.034Z,20.19
2023-01-30T12:25:32.053Z,19.94
2023-01-30T12:26:32.123Z,19.97
2023-01-30T12:27:32.175Z,20.08
2023-01-30T12:28:32.199Z,19.77
2023-01-30T12:29:32.166Z,20.03
2023-01-30T12:30:32.324Z,20.15
2023-01-30T12:31:32.232Z,20.11
2023-01-30T12:32:32.372Z,20.11
2023-01-30T12:33:32.302Z,20.08
2023-01-30T12:34:32.316Z,20.03
2023-01-30T12:35:32.377Z,19.98
2023-01-30T12:36:32.744Z,19.94
2023-01-30T12:37:32.396Z,19.90
2023-01-30T12:38:32.440Z,19.89
2023-01-30T12:39:32.479Z,19.89
2023-01-30T12:40:32.515Z,19.88
2023-01-30T12:41:32.560Z,19.95
2023-01-30T12:42:32.604Z,19.97
2023-01-30T12:43:32.605Z,19.92
2023-01-30T12:44:32.606Z,19.89
2023-01-30T12:45:32.621Z,19.87
2023-01-30T12:46:32.789Z,19.81
2023-01-30T12:47:32.677Z,19.78
2023-01-30T12:48:38.926Z,19.77
2023-01-30T12:50:32.675Z,19.70
2023-01-30T12:51:32.625Z,19.65
2023-01-30T12:52:32.639Z,19.63
2023-01-30T12:53:32.597Z,19.61
2023-01-30T12:54:32.557Z,19.55
2023-01-30T12:55:32.548Z,19.51
2023-01-30T12:56:32.511Z,19.49
2023-01-30T12:57:32.511Z,19.49
2023-01-30T12:58:32.473Z,19.48
2023-01-30T12:59:32.478Z,19.44
2023-01-30T13:00:32.408Z,19.43
2023-01-30T13:01:32.493Z,19.41
2023-01-30T13:02:32.388Z,19.41
2023-01-30T13:03:32.358Z,19.41
2023-01-30T13:04:32.385Z,19.37
2023-01-30T13:05:32.441Z,19.34
2023-01-30T13:06:32.444Z,19.33
2023-01-30T13:07:32.505Z,19.32
2023-01-30T13:08:32.507Z,19.30
2023-01-30T13:09:32.575Z,19.24
2023-01-30T13:10:32.582Z,19.22
2023-01-30T13:11:32.706Z,19.20
2023-01-30T13:12:32.678Z,19.20
2023-01-30T13:13:32.720Z,19.17
2023-01-30T13:14:32.731Z,19.10
2023-01-30T13:15:32.775Z,19.10
2023-01-30T13:16:32.879Z,19.08
2023-01-30T13:17:32.856Z,19.02
2023-01-30T13:18:32.903Z,18.93
2023-01-30T13:19:40.789Z,18.99
2023-01-30T13:20:33.881Z,18.97
2023-01-30T13:34:32.755Z,18.46
2023-01-30T13:35:32.767Z,20.05
2023-01-30T13:36:32.836Z,20.05
2023-01-30T13:37:32.861Z,23.74
2023-01-30T13:38:32.894Z,25.73
2023-01-30T13:39:32.951Z,24.33
2023-01-30T13:40:32.992Z,24.81
2023-01-30T13:41:33.019Z,25.06
2023-01-30T13:42:33.077Z,25.30
2023-01-30T13:43:33.099Z,25.20
2023-01-30T13:44:33.095Z,24.93
2023-01-30T13:45:33.127Z,23.99
2023-01-30T13:46:33.258Z,24.42
2023-01-30T13:47:33.242Z,24.62
2023-01-30T13:48:33.218Z,24.78
2023-01-30T13:49:33.236Z,24.24
2023-01-30T13:50:33.257Z,24.40
2023-01-30T13:51:33.291Z,24.44
2023-01-30T13:52:33.333Z,24.96
2023-01-30T13:53:33.353Z,25.17
2023-01-30T13:54:33.410Z,24.68
2023-01-30T13:55:33.412Z,24.39
2023-01-30T13:56:41.451Z,24.28
2023-01-30T13:58:33.439Z,24.70
2023-01-30T13:59:33.415Z,25.24
2023-01-30T14:00:33.412Z,25.60
2023-01-30T14:01:33.500Z,25.00
2023-01-30T14:02:33.392Z,25.07
2023-01-30T14:03:33.310Z,25.02
2023-01-30T14:04:33.261Z,25.05
2023-01-30T14:05:43.394Z,24.77
2023-01-30T14:06:34.223Z,24.64
2023-01-30T14:07:33.177Z,24.66
2023-01-30T14:08:33.149Z,24.62
2023-01-30T14:09:33.215Z,24.49
2023-01-30T14:10:33.190Z,24.42
2023-01-30T14:11:34.250Z,24.32
2023-01-30T14:12:33.131Z,24.22
2023-01-30T14:13:33.061Z,24.13
2023-01-30T14:14:33.015Z,23.99
2023-01-30T14:15:33.045Z,23.84
2023-01-30T14:16:33.067Z,23.74
2023-01-30T14:17:33.076Z,23.67
2023-01-30T14:18:33.099Z,23.64
2023-01-30T14:19:33.117Z,23.66
2023-01-30T14:20:33.189Z,23.58
2023-01-30T14:21:33.253Z,23.27
2023-01-30T14:22:33.236Z,23.33
2023-01-30T14:23:33.248Z,23.24
2023-01-30T14:24:33.777Z,23.15
2023-01-30T14:25:33.290Z,23.05
2023-01-30T14:26:33.359Z,22.95
2023-01-30T14:27:33.392Z,22.83
2023-01-30T14:28:33.396Z,22.78
2023-01-30T14:29:33.450Z,22.72
2023-01-30T14:30:33.511Z,22.69
2023-01-30T14:31:33.643Z,22.62
2023-01-30T14:32:33.849Z,22.58
2023-01-30T14:33:33.590Z,22.46
2023-01-30T14:34:33.603Z,22.40
2023-01-30T14:35:33.679Z,22.29
2023-01-30T14:36:33.713Z,21.50
2023-01-30T14:37:33.741Z,21.50
2023-01-30T14:38:33.748Z,20.76
2023-01-30T14:39:33.827Z,20.86
2023-01-30T14:40:33.810Z,20.79
2023-01-30T14:41:33.896Z,20.63
2023-01-30T14:42:33.874Z,20.56
2023-01-30T14:43:33.916Z,20.54
2023-01-30T14:44:33.942Z,20.41
2023-01-30T14:45:33.926Z,20.46
2023-01-30T14:46:33.984Z,20.60
2023-01-30T14:47:37.884Z,20.58
2023-01-30T14:48:36.863Z,20.60
2023-01-30T14:49:33.955Z,20.60
2023-01-30T14:50:33.888Z,20.59
2023-01-30T14:51:33.889Z,20.58
2023-01-30T14:52:33.865Z,20.56
2023-01-30T14:53:33.843Z,20.46
2023-01-30T14:54:41.937Z,20.42
2023-01-30T14:55:34.735Z,20.47
2023-01-30T14:56:33.720Z,20.40
2023-01-30T14:57:33.726Z,20.35
2023-01-30T14:58:33.673Z,20.32
2023-01-30T14:59:33.709Z,20.19
2023-01-30T15:00:33.636Z,20.14
2023-01-30T15:01:33.615Z,20.09
2023-01-30T15:02:33.623Z,19.96
2023-01-30T15:03:33.595Z,19.79
2023-01-30T15:04:33.544Z,19.66
2023-01-30T15:05:33.603Z,19.51
2023-01-30T15:09:33.695Z,19.56
2023-01-30T15:10:33.756Z,19.48
2023-01-30T15:11:33.796Z,19.53
2023-01-30T15:12:33.839Z,19.53
2023-01-30T15:13:33.859Z,19.52
2023-01-30T15:14:33.857Z,19.54
2023-01-30T15:15:33.887Z,19.41
2023-01-30T15:16:33.973Z,19.38
2023-01-30T15:17:33.970Z,19.33
2023-01-30T15:18:33.992Z,19.40
2023-01-30T15:19:34.048Z,19.33
2023-01-30T15:20:34.093Z,19.27
2023-01-30T15:22:34.173Z,19.31
2023-01-30T15:23:34.217Z,19.31
2023-01-30T15:24:34.209Z,19.21
2023-01-30T15:25:34.237Z,19.27
2023-01-30T15:26:34.380Z,19.27
2023-01-30T15:27:34.273Z,19.28
2023-01-30T15:28:34.355Z,19.25
2023-01-30T15:29:34.423Z,19.24
2023-01-30T15:30:34.450Z,19.24
2023-01-30T15:31:34.429Z,19.18
2023-01-30T15:32:34.438Z,19.25
2023-01-30T15:33:34.472Z,19.31
2023-01-30T15:34:34.505Z,19.14
2023-01-30T15:35:34.530Z,19.12
2023-01-30T15:36:34.582Z,19.05
2023-01-30T15:37:34.603Z,19.06
2023-01-30T15:38:34.645Z,19.05
2023-01-30T15:39:34.668Z,19.02
2023-01-30T15:40:34.661Z,19.01
2023-01-30T15:41:36.757Z,18.96
2023-01-30T15:42:34.757Z,18.95
2023-01-30T15:43:34.757Z,18.89
2023-01-30T15:44:34.764Z,18.83
2023-01-30T15:45:34.845Z,18.81
2023-01-30T15:46:34.854Z,18.84
2023-01-30T15:47:34.818Z,18.93
2023-01-30T15:48:34.893Z,18.81
2023-01-30T15:49:34.937Z,18.93
2023-01-30T15:50:34.977Z,19.00
2023-01-30T15:51:34.999Z,18.93
2023-01-30T15:52:35.044Z,18.88
2023-01-30T15:53:35.044Z,18.83
2023-01-30T15:54:35.080Z,18.74
2023-01-30T15:55:35.116Z,18.59
2023-01-30T15:56:35.119Z,18.60
2023-01-30T15:57:35.198Z,18.59
2023-01-30T15:58:35.158Z,18.59
2023-01-30T15:59:35.178Z,18.62
2023-01-30T16:00:35.221Z,18.62
2023-01-30T16:01:35.305Z,18.61
2023-01-30T16:02:35.425Z,18.66
2023-01-30T16:03:35.344Z,18.60
2023-01-30T16:04:35.387Z,18.55
2023-01-30T16:05:35.397Z,18.57
2023-01-30T16:06:35.445Z,18.60
2023-01-30T16:07:35.457Z,18.61
2023-01-30T16:08:35.479Z,18.62
2023-01-30T16:09:35.530Z,18.59
2023-01-30T16:10:35.541Z,18.57
2023-01-30T16:11:35.568Z,18.55
2023-01-30T16:12:35.610Z,18.51
2023-01-30T16:13:35.621Z,18.48
2023-01-30T16:14:35.664Z,18.38
2023-01-30T16:15:36.131Z,18.35
2023-01-30T16:16:35.780Z,18.18
2023-01-30T16:17:35.743Z,18.13
2023-01-30T16:18:35.789Z,17.99
2023-01-30T16:19:35.813Z,17.85
2023-01-30T16:20:35.819Z,17.88
2023-01-30T16:21:35.828Z,18.09
2023-01-30T16:22:35.882Z,18.17
2023-01-30T16:23:35.921Z,18.05
2023-01-30T16:24:35.939Z,18.08
2023-01-30T16:25:35.973Z,18.05
2023-01-30T16:26:35.979Z,18.10
2023-01-30T16:27:36.014Z,18.12
2023-01-30T16:28:36.048Z,18.03
2023-01-30T16:29:36.061Z,18.00
2023-01-30T16:30:36.156Z,18.00
2023-01-30T16:31:36.194Z,17.98
2023-01-30T16:32:36.112Z,18.02
2023-01-30T16:33:36.519Z,18.05
2023-01-30T16:34:36.180Z,18.09
2023-01-30T16:35:36.202Z,17.99
2023-01-30T16:36:36.240Z,18.04
2023-01-30T16:37:36.265Z,18.05
2023-01-30T16:38:36.264Z,18.08
2023-01-30T16:39:36.296Z,18.08
2023-01-30T16:40:36.286Z,18.07
2023-01-30T16:41:36.331Z,18.03
2023-01-30T16:42:36.387Z,18.00
2023-01-30T16:43:36.398Z,17.93
2023-01-30T16:44:36.398Z,17.92
2023-01-30T16:45:36.479Z,17.91
2023-01-30T16:46:36.458Z,17.89
2023-01-30T16:47:36.462Z,17.94
2023-01-30T16:48:36.515Z,18.01
2023-01-30T16:49:36.532Z,17.98
2023-01-30T16:50:36.561Z,17.97
2023-01-30T16:51:36.585Z,17.95
2023-01-30T16:52:36.646Z,17.97
2023-01-30T16:53:36.646Z,17.92
2023-01-30T16:54:36.684Z,17.88
2023-01-30T16:55:36.675Z,17.77
2023-01-30T16:56:36.727Z,17.78
2023-01-30T16:57:36.744Z,17.67
2023-01-30T16:58:36.773Z,17.79
2023-01-30T16:59:36.775Z,17.76
2023-01-30T17:00:36.809Z,17.83
2023-01-30T17:01:36.924Z,17.78
2023-01-30T17:02:36.786Z,17.74
2023-01-30T17:03:36.907Z,17.75
2023-01-30T17:04:36.836Z,17.74
2023-01-30T17:05:36.852Z,17.75
2023-01-30T17:06:36.874Z,17.77
2023-01-30T17:07:36.898Z,17.78
2023-01-30T17:08:36.916Z,17.79
2023-01-30T17:09:36.968Z,17.74
2023-01-30T17:10:36.983Z,17.75
2023-01-30T17:11:37.001Z,17.76
2023-01-30T17:12:37.108Z,17.74
2023-01-30T17:13:37.058Z,17.74
2023-01-30T17:14:37.101Z,17.74
2023-01-30T17:15:37.170Z,17.76
2023-01-30T17:16:37.152Z,17.75
2023-01-30T17:17:37.204Z,17.72
2023-01-30T17:18:37.220Z,17.68
2023-01-30T17:19:37.226Z,17.69
2023-01-30T17:20:37.226Z,17.72
2023-01-30T17:21:37.259Z,17.72
2023-01-30T17:22:37.352Z,17.70
2023-01-30T17:23:37.353Z,17.70
2023-01-30T17:24:37.312Z,17.72
2023-01-30T17:25:37.364Z,17.71
2023-01-30T17:26:39.609Z,17.74
2023-01-30T17:27:37.351Z,17.71
2023-01-30T17:28:37.336Z,17.71
2023-01-30T17:29:42.955Z,17.72
2023-01-30T17:31:37.383Z,17.76
2023-01-30T17:32:37.259Z,17.79
2023-01-30T17:33:37.254Z,17.76
2023-01-30T17:34:37.239Z,17.76
2023-01-30T17:35:37.227Z,17.79
2023-01-30T17:36:37.183Z,17.78
2023-01-30T17:37:37.172Z,17.74
2023-01-30T17:38:37.161Z,17.70
2023-01-30T17:39:37.131Z,17.71
2023-01-30T17:40:37.117Z,17.73
2023-01-30T17:41:37.105Z,17.69
2023-01-30T17:42:37.075Z,17.65
2023-01-30T17:43:37.070Z,17.71
2023-01-30T17:44:37.117Z,17.77
2023-01-30T17:45:37.141Z,17.79
2023-01-30T17:46:37.228Z,17.71
2023-01-30T17:47:37.218Z,17.71
2023-01-30T17:48:37.247Z,17.68
2023-01-30T17:49:37.268Z,17.75
2023-01-30T17:51:37.350Z,17.80
2023-01-30T17:52:37.381Z,17.85
2023-01-30T17:53:37.381Z,17.81
2023-01-30T17:54:37.426Z,17.80
2023-01-30T17:55:37.476Z,17.80
2023-01-30T17:56:38.274Z,17.77
2023-01-30T17:57:37.511Z,17.79
2023-01-30T17:58:37.533Z,17.75
2023-01-30T17:59:37.549Z,17.74
2023-01-30T18:00:37.610Z,17.79
2023-01-30T18:01:37.650Z,17.82
2023-01-30T18:02:37.669Z,17.83
2023-01-30T18:03:37.702Z,17.83
2023-01-30T18:04:37.748Z,17.76
2023-01-30T18:05:37.753Z,17.75
2023-01-30T18:06:37.780Z,17.80
2023-01-30T18:07:37.828Z,17.77
2023-01-30T18:08:37.981Z,17.66
2023-01-30T18:09:37.919Z,17.56
2023-01-30T18:10:37.988Z,17.64
2023-01-30T18:11:37.991Z,17.74
2023-01-30T18:12:37.993Z,17.81
2023-01-30T18:13:38.038Z,17.82
2023-01-30T18:14:38.072Z,17.86
2023-01-30T18:15:38.123Z,17.89
2023-01-30T18:16:38.196Z,17.90
2023-01-30T18:17:38.151Z,17.91
2023-01-30T18:18:38.238Z,17.90
2023-01-30T18:19:38.254Z,17.90
2023-01-30T18:20:38.260Z,17.90
2023-01-30T18:21:38.313Z,17.89
2023-01-30T18:22:38.335Z,17.91
2023-01-30T18:23:38.377Z,17.91
2023-01-30T18:29:38.459Z,18.02
2023-01-30T18:31:38.661Z,18.07
2023-01-30T18:33:38.596Z,18.14
2023-01-30T19:56:42.128Z,19.87
2023-01-30T19:57:42.193Z,19.94
2023-01-30T19:58:42.246Z,19.90
2023-01-30T19:59:42.230Z,19.92
2023-01-30T20:00:43.133Z,19.96
2023-01-30T20:01:42.358Z,19.95
2023-01-30T20:02:42.405Z,19.97
2023-01-30T20:03:42.484Z,20.01
2023-01-30T20:04:42.490Z,20.02
2023-01-30T20:05:42.520Z,20.01
2023-01-30T20:06:42.537Z,20.03
2023-01-30T20:07:42.591Z,20.03
2023-01-30T20:08:42.650Z,20.04
